createdAt,value
2019-03-05T00:01:05.978Z,1.60
2019-03-05T00:03:34.641Z,1.80
2019-03-05T00:06:03.576Z,1.40
2019-03-05T00:08:32.165Z,1.47
2019-03-05T00:11:00.908Z,2.20
2019-03-05T00:13:29.501Z,1.87
2019-03-05T00:15:58.217Z,1.60
2019-03-05T00:18:27.324Z,1.67
2019-03-05T00:20:55.990Z,1.80
2019-03-05T00:23:45.275Z,1.87
2019-03-05T00:26:14.069Z,2.07
2019-03-05T00:29:11.942Z,1.87
2019-03-05T00:31:43.155Z,1.83
2019-03-05T00:34:33.153Z,2.20
2019-03-05T00:37:10.683Z,2.30
2019-03-05T00:40:05.148Z,2.10
2019-03-05T00:43:00.071Z,2.10
2019-03-05T00:45:34.794Z,1.70
2019-03-05T00:48:06.482Z,2.20
2019-03-05T00:51:02.263Z,1.80
2019-03-05T00:53:36.858Z,2.70
2019-03-05T00:56:17.881Z,2.50
2019-03-05T00:59:08.849Z,2.67
2019-03-05T01:01:57.349Z,2.27
2019-03-05T01:04:34.951Z,4.57
2019-03-05T01:07:03.698Z,2.53
2019-03-05T01:09:32.453Z,2.90
2019-03-05T01:12:01.331Z,2.80
2019-03-05T01:14:30.169Z,3.00
2019-03-05T01:16:58.824Z,2.40
2019-03-05T01:19:27.727Z,2.57
2019-03-05T01:21:56.383Z,2.63
2019-03-05T01:24:24.937Z,2.63
2019-03-05T01:26:53.681Z,2.60
2019-03-05T01:29:22.296Z,2.80
2019-03-05T01:32:08.907Z,2.23
2019-03-05T01:34:44.579Z,2.07
2019-03-05T01:37:13.155Z,2.60
2019-03-05T01:39:43.355Z,2.23
2019-03-05T01:42:12.106Z,2.10
2019-03-05T01:44:40.662Z,2.27
2019-03-05T01:47:09.263Z,2.00
2019-03-05T01:49:37.839Z,2.50
2019-03-05T01:52:06.492Z,1.70
2019-03-05T01:54:35.533Z,2.17
2019-03-05T01:57:04.174Z,1.90
2019-03-05T01:59:32.724Z,2.00
2019-03-05T02:02:01.374Z,1.73
2019-03-05T02:04:30.291Z,1.77
2019-03-05T02:06:59.574Z,1.60
2019-03-05T02:09:28.137Z,1.73
2019-03-05T02:11:56.854Z,1.40
2019-03-05T02:14:25.658Z,1.73
2019-03-05T02:16:54.423Z,1.47
2019-03-05T02:19:37.242Z,1.77
2019-03-05T02:22:08.790Z,1.30
2019-03-05T02:24:59.698Z,1.30
2019-03-05T02:27:57.204Z,1.40
2019-03-05T02:30:46.678Z,1.00
2019-03-05T02:33:36.741Z,1.23
2019-03-05T02:36:43.639Z,1.10
2019-03-05T02:39:18.188Z,1.40
2019-03-05T02:41:58.864Z,1.60
2019-03-05T02:44:30.518Z,1.60
2019-03-05T02:47:05.063Z,1.03
2019-03-05T02:49:56.743Z,1.60
2019-03-05T02:52:43.718Z,1.47
2019-03-05T02:55:21.334Z,1.57
2019-03-05T02:57:49.472Z,1.70
2019-03-05T03:00:20.638Z,1.57
2019-03-05T03:02:53.727Z,1.30
2019-03-05T03:05:24.010Z,1.53
2019-03-05T03:07:52.583Z,1.37
2019-03-05T03:10:22.691Z,1.53
2019-03-05T03:12:51.471Z,1.33
2019-03-05T03:15:20.212Z,1.43
2019-03-05T03:17:49.152Z,1.70
2019-03-05T03:20:18.369Z,1.50
2019-03-05T03:22:47.025Z,1.17
2019-03-05T03:25:17.365Z,1.37
2019-03-05T03:27:45.954Z,1.50
2019-03-05T03:30:20.235Z,1.33
2019-03-05T03:32:48.909Z,1.43
2019-03-05T03:35:17.541Z,1.30
2019-03-05T03:37:46.178Z,1.33
2019-03-05T03:40:17.176Z,1.37
2019-03-05T03:42:45.923Z,1.37
2019-03-05T03:45:16.859Z,1.60
2019-03-05T03:47:45.521Z,1.40
2019-03-05T03:50:14.242Z,1.10
2019-03-05T03:52:42.848Z,1.20
2019-03-05T03:55:13.982Z,1.43
2019-03-05T03:57:42.692Z,1.03
2019-03-05T04:00:14.257Z,0.97
2019-03-05T04:02:42.931Z,1.20
2019-03-05T04:05:11.717Z,0.70
2019-03-05T04:07:40.754Z,0.90
2019-03-05T04:10:11.867Z,0.80
2019-03-05T04:12:40.497Z,1.13
2019-03-05T04:15:19.259Z,1.73
2019-03-05T04:17:47.934Z,1.17
2019-03-05T04:20:27.790Z,1.23
2019-03-05T04:22:56.383Z,1.53
2019-03-05T04:25:25.039Z,1.63
2019-03-05T04:27:53.642Z,1.50
2019-03-05T04:30:22.444Z,1.13
2019-03-05T04:32:51.249Z,1.07
2019-03-05T04:35:19.881Z,1.40
2019-03-05T04:37:48.568Z,1.30
2019-03-05T04:40:17.176Z,1.57
2019-03-05T04:42:45.807Z,1.67
2019-03-05T04:45:37.487Z,1.93
2019-03-05T04:48:06.468Z,1.43
2019-03-05T04:50:42.688Z,2.10
2019-03-05T04:53:11.536Z,2.27
2019-03-05T04:55:40.105Z,2.30
2019-03-05T04:58:08.690Z,1.83
2019-03-05T05:00:37.329Z,2.43
2019-03-05T05:03:06.435Z,1.93
2019-03-05T05:05:35.425Z,2.10
2019-03-05T05:08:04.080Z,2.43
2019-03-05T05:10:33.178Z,2.23
2019-03-05T05:13:01.955Z,2.43
2019-03-05T05:15:34.806Z,2.60
2019-03-05T05:18:03.857Z,2.67
2019-03-05T05:20:32.786Z,2.23
2019-03-05T05:23:02.351Z,2.20
2019-03-05T05:25:31.868Z,2.70
2019-03-05T05:28:00.495Z,3.17
2019-03-05T05:30:39.654Z,3.13
2019-03-05T05:33:08.686Z,3.13
2019-03-05T05:35:37.250Z,3.13
2019-03-05T05:38:05.923Z,3.50
2019-03-05T05:40:39.247Z,3.07
2019-03-05T05:43:13.488Z,3.17
2019-03-05T05:45:44.596Z,3.20
2019-03-05T05:48:13.287Z,4.03
2019-03-05T05:50:42.023Z,3.83
2019-03-05T05:53:10.614Z,3.77
2019-03-05T05:55:39.323Z,3.60
2019-03-05T05:58:08.044Z,4.07
2019-03-05T06:00:38.343Z,3.73
2019-03-05T06:03:06.903Z,3.80
2019-03-05T06:05:35.497Z,4.07
2019-03-05T06:08:04.057Z,3.83
2019-03-05T06:10:32.743Z,4.13
2019-03-05T06:13:01.464Z,3.80
2019-03-05T06:15:30.484Z,3.57
2019-03-05T06:17:59.212Z,4.07
2019-03-05T06:20:27.953Z,4.20
2019-03-05T06:22:56.513Z,4.17
2019-03-05T06:25:25.111Z,4.27
2019-03-05T06:27:53.687Z,3.80
2019-03-05T06:30:25.116Z,4.17
2019-03-05T06:32:53.684Z,3.70
2019-03-05T06:35:22.388Z,3.67
2019-03-05T06:37:50.948Z,3.87
2019-03-05T06:40:22.331Z,4.07
2019-03-05T06:42:50.964Z,4.00
2019-03-05T06:45:20.261Z,3.57
2019-03-05T06:47:48.912Z,3.97
2019-03-05T06:50:19.885Z,3.97
2019-03-05T06:52:48.571Z,3.77
2019-03-05T06:55:17.814Z,3.73
2019-03-05T06:57:46.534Z,4.13
2019-03-05T07:00:27.863Z,3.40
2019-03-05T07:02:56.966Z,3.73
2019-03-05T07:06:02.166Z,4.10
2019-03-05T07:08:30.739Z,3.57
2019-03-05T07:11:14.311Z,3.13
2019-03-05T07:13:44.121Z,2.97
2019-03-05T07:16:21.995Z,4.13
2019-03-05T07:18:53.589Z,3.47
2019-03-05T07:21:47.139Z,3.43
2019-03-05T07:24:25.057Z,3.10
2019-03-05T07:26:53.624Z,2.90
2019-03-05T07:29:22.492Z,3.17
2019-03-05T07:31:51.222Z,3.73
2019-03-05T07:34:23.893Z,3.73
2019-03-05T07:36:52.463Z,2.93
2019-03-05T07:39:23.329Z,3.47
2019-03-05T07:41:51.962Z,3.27
2019-03-05T07:44:20.535Z,3.40
2019-03-05T07:46:49.135Z,3.53
2019-03-05T07:49:18.041Z,2.60
2019-03-05T07:51:46.648Z,2.73
2019-03-05T07:54:15.222Z,2.47
2019-03-05T07:56:43.841Z,3.40
2019-03-05T07:59:12.717Z,2.97
2019-03-05T08:01:41.319Z,2.83
2019-03-05T08:04:10.748Z,3.07
2019-03-05T08:06:39.402Z,3.70
2019-03-05T08:09:31.011Z,4.00
2019-03-05T08:12:11.483Z,3.20
2019-03-05T08:14:48.926Z,3.20
2019-03-05T08:17:17.976Z,3.10
2019-03-05T08:19:46.562Z,3.47
2019-03-05T08:22:15.285Z,3.00
2019-03-05T08:24:44.543Z,3.13
2019-03-05T08:27:13.415Z,2.93
2019-03-05T08:29:42.974Z,2.40
2019-03-05T08:32:11.985Z,2.27
2019-03-05T08:34:40.636Z,2.57
2019-03-05T08:37:09.213Z,2.43
2019-03-05T08:39:38.044Z,2.50
2019-03-05T08:42:06.593Z,2.30
2019-03-05T08:44:35.168Z,2.23
2019-03-05T08:47:03.750Z,2.33
2019-03-05T08:49:32.392Z,2.20
2019-03-05T08:52:00.977Z,2.03
2019-03-05T08:54:29.559Z,2.30
2019-03-05T08:56:58.516Z,2.10
2019-03-05T08:59:27.086Z,1.70
2019-03-05T09:01:55.681Z,2.10
2019-03-05T09:04:24.237Z,1.57
2019-03-05T09:06:52.904Z,1.67
2019-03-05T09:09:21.822Z,2.10
2019-03-05T09:11:50.783Z,2.17
2019-03-05T09:14:19.355Z,1.83
2019-03-05T09:16:47.946Z,1.93
2019-03-05T09:19:17.050Z,1.40
2019-03-05T09:21:45.712Z,1.33
2019-03-05T09:24:14.361Z,2.07
2019-03-05T09:26:50.696Z,1.63
2019-03-05T09:29:13.857Z,1.70
2019-03-05T09:31:42.470Z,2.27
2019-03-05T09:34:11.097Z,1.60
2019-03-05T09:36:50.053Z,2.17
2019-03-05T09:39:11.357Z,1.23
2019-03-05T09:41:40.125Z,1.67
2019-03-05T09:44:08.769Z,1.70
2019-03-05T09:46:37.368Z,1.60
2019-03-05T09:49:06.092Z,1.33
2019-03-05T09:51:35.087Z,1.27
2019-03-05T09:54:03.944Z,1.30
2019-03-05T09:56:32.552Z,1.80
2019-03-05T09:59:01.128Z,1.73
2019-03-05T10:01:29.760Z,1.50
2019-03-05T10:03:58.345Z,1.87
2019-03-05T10:06:26.917Z,1.63
2019-03-05T10:08:55.504Z,2.20
2019-03-05T10:11:24.279Z,1.70
2019-03-05T10:13:52.858Z,1.60
2019-03-05T10:16:21.433Z,1.43
2019-03-05T10:18:50.021Z,1.90
2019-03-05T10:21:18.648Z,1.93
2019-03-05T10:23:48.350Z,2.60
2019-03-05T10:26:18.706Z,1.80
2019-03-05T10:28:47.299Z,1.77
2019-03-05T10:31:18.495Z,1.87
2019-03-05T10:33:46.294Z,1.97
2019-03-05T10:36:14.875Z,1.60
2019-03-05T10:38:43.886Z,1.83
2019-03-05T10:41:12.532Z,1.87
2019-03-05T10:43:41.135Z,1.83
2019-03-05T10:46:10.511Z,1.70
2019-03-05T10:48:39.118Z,1.80
2019-03-05T10:51:07.708Z,1.90
2019-03-05T10:53:36.289Z,2.00
2019-03-05T10:56:05.900Z,1.53
2019-03-05T10:58:34.884Z,1.57
2019-03-05T11:01:06.543Z,1.87
2019-03-05T11:03:35.168Z,1.50
2019-03-05T11:06:05.863Z,1.63
2019-03-05T11:08:34.461Z,1.80
2019-03-05T11:11:13.028Z,1.60
2019-03-05T11:13:33.457Z,1.83
2019-03-05T11:16:04.821Z,1.60
2019-03-05T11:18:34.047Z,1.57
2019-03-05T11:21:02.688Z,1.60
2019-03-05T11:23:31.280Z,1.10
2019-03-05T11:25:59.850Z,1.17
2019-03-05T11:28:28.862Z,1.50
2019-03-05T11:30:57.499Z,1.50
2019-03-05T11:33:26.268Z,1.30
2019-03-05T11:35:54.825Z,1.70
2019-03-05T11:38:23.490Z,1.40
2019-03-05T11:40:52.123Z,1.40
2019-03-05T11:43:21.137Z,1.47
2019-03-05T11:45:49.880Z,1.03
2019-03-05T11:48:18.456Z,1.53
2019-03-05T11:50:47.019Z,1.23
2019-03-05T11:53:15.623Z,0.70
2019-03-05T11:55:44.274Z,1.00
2019-03-05T11:58:12.919Z,0.93
2019-03-05T12:01:02.165Z,1.30
2019-03-05T12:03:30.733Z,1.20
2019-03-05T12:05:59.315Z,1.30
2019-03-05T12:08:27.904Z,1.00
2019-03-05T12:10:56.476Z,1.17
2019-03-05T12:13:25.342Z,0.87
2019-03-05T12:15:53.918Z,0.80
2019-03-05T12:18:25.241Z,1.30
2019-03-05T12:20:52.828Z,1.50
2019-03-05T12:23:21.430Z,1.10
2019-03-05T12:25:49.999Z,1.30
2019-03-05T12:28:18.921Z,1.27
2019-03-05T12:30:49.335Z,1.37
2019-03-05T12:33:17.936Z,1.53
2019-03-05T12:35:46.497Z,1.80
2019-03-05T12:38:15.114Z,1.77
2019-03-05T12:40:43.687Z,1.50
2019-03-05T12:43:12.291Z,1.70
2019-03-05T12:45:40.858Z,1.60
2019-03-05T12:48:09.456Z,1.67
2019-03-05T12:50:38.473Z,1.80
2019-03-05T12:53:07.142Z,2.00
2019-03-05T12:55:36.075Z,1.90
2019-03-05T12:58:04.822Z,2.47
2019-03-05T13:00:35.069Z,3.10
2019-03-05T13:03:04.150Z,2.27
2019-03-05T13:05:32.754Z,2.40
2019-03-05T13:08:01.415Z,2.47
2019-03-05T13:10:37.328Z,2.67
2019-03-05T13:13:05.804Z,2.00
2019-03-05T13:15:37.084Z,1.93
2019-03-05T13:18:05.999Z,1.90
2019-03-05T13:20:34.667Z,1.90
2019-03-05T13:23:08.515Z,1.63
2019-03-05T13:25:34.115Z,1.83
2019-03-05T13:28:04.262Z,1.60
2019-03-05T13:30:33.280Z,1.20
2019-03-05T13:33:01.920Z,1.67
2019-03-05T13:35:32.026Z,2.00
2019-03-05T13:38:03.425Z,1.80
2019-03-05T13:40:34.206Z,1.83
2019-03-05T13:43:03.441Z,1.60
2019-03-05T13:45:32.032Z,1.90
2019-03-05T13:48:19.705Z,1.20
2019-03-05T13:50:49.307Z,0.50
2019-03-05T13:53:26.298Z,0.80
2019-03-05T13:56:00.500Z,0.90
2019-03-05T13:58:40.381Z,0.80
2019-03-05T14:01:10.324Z,0.60
2019-03-05T14:03:41.963Z,0.60
2019-03-05T14:06:36.091Z,0.80
2019-03-05T14:09:13.203Z,1.00
2019-03-05T14:11:43.114Z,0.73
2019-03-05T14:14:20.082Z,0.90
2019-03-05T14:16:50.637Z,0.93
2019-03-05T14:19:19.207Z,1.00
2019-03-05T14:21:47.874Z,0.97
2019-03-05T14:24:16.451Z,1.23
2019-03-05T14:26:45.141Z,0.87
2019-03-05T14:29:13.751Z,1.17
2019-03-05T14:31:43.071Z,0.87
2019-03-05T14:34:11.671Z,0.80
2019-03-05T14:36:40.230Z,0.83
2019-03-05T14:39:25.436Z,1.03
2019-03-05T14:41:54.473Z,0.87
2019-03-05T14:44:23.102Z,0.33
2019-03-05T14:46:56.663Z,0.90
2019-03-05T14:49:25.645Z,0.87
2019-03-05T14:51:54.244Z,0.97
2019-03-05T14:54:22.921Z,0.97
2019-03-05T14:56:51.513Z,0.97
2019-03-05T14:59:20.186Z,1.27
2019-03-05T15:01:49.189Z,1.03
2019-03-05T15:04:17.761Z,0.80
2019-03-05T15:06:47.241Z,0.70
2019-03-05T15:09:15.822Z,0.50
2019-03-05T15:11:44.374Z,0.90
2019-03-05T15:14:13.024Z,1.07
2019-03-05T15:16:41.646Z,0.80
2019-03-05T15:19:20.812Z,0.60
2019-03-05T15:21:40.449Z,1.00
2019-03-05T15:24:09.039Z,0.87
2019-03-05T15:26:38.098Z,0.73
2019-03-05T15:29:08.281Z,0.67
2019-03-05T15:31:36.872Z,0.40
2019-03-05T15:34:05.412Z,0.30
2019-03-05T15:36:34.038Z,0.40
2019-03-05T15:39:02.571Z,0.30
2019-03-05T15:41:31.524Z,0.50
2019-03-05T15:44:00.091Z,0.80
2019-03-05T15:46:29.141Z,0.67
2019-03-05T15:48:58.182Z,0.70
2019-03-05T15:51:26.934Z,0.60
2019-03-05T15:53:55.480Z,0.60
2019-03-05T15:56:24.073Z,0.80
2019-03-05T15:58:52.667Z,0.90
2019-03-05T16:01:22.599Z,0.80
2019-03-05T16:03:51.635Z,0.73
2019-03-05T16:06:20.223Z,1.10
2019-03-05T16:08:48.791Z,1.17
2019-03-05T16:11:17.391Z,1.23
2019-03-05T16:13:46.036Z,1.73
2019-03-05T16:16:18.425Z,1.10
2019-03-05T16:18:44.843Z,0.90
2019-03-05T16:21:13.423Z,1.13
2019-03-05T16:23:42.025Z,2.60
2019-03-05T16:26:10.598Z,2.20
2019-03-05T16:28:43.075Z,0.90
2019-03-05T16:31:17.175Z,1.00
2019-03-05T16:33:56.383Z,1.33
2019-03-05T16:36:29.182Z,1.03
2019-03-05T16:38:58.834Z,1.20
2019-03-05T16:41:34.887Z,1.50
2019-03-05T16:44:05.145Z,1.10
2019-03-05T16:46:50.715Z,1.13
2019-03-05T16:49:33.284Z,0.60
2019-03-05T16:52:06.482Z,1.00
2019-03-05T16:54:36.698Z,6.13
2019-03-05T16:57:10.238Z,1.67
2019-03-05T16:59:40.478Z,1.00
2019-03-05T17:02:27.740Z,0.90
2019-03-05T17:05:13.302Z,1.20
2019-03-05T17:07:55.689Z,1.43
2019-03-05T17:10:31.766Z,1.03
2019-03-05T17:13:00.756Z,0.70
2019-03-05T17:15:29.302Z,0.80
2019-03-05T17:17:57.891Z,0.90
2019-03-05T17:20:26.862Z,0.93
2019-03-05T17:22:55.463Z,1.07
2019-03-05T17:25:24.543Z,1.70
2019-03-05T17:27:53.217Z,1.93
2019-03-05T17:30:21.807Z,0.80
2019-03-05T17:32:50.404Z,0.93
2019-03-05T17:35:18.967Z,0.93
2019-03-05T17:37:47.761Z,0.93
2019-03-05T17:40:16.559Z,1.30
2019-03-05T17:42:45.152Z,1.50
2019-03-05T17:45:21.972Z,1.10
2019-03-05T17:51:11.875Z,1.23
2019-03-05T17:57:18.803Z,1.50
2019-03-05T18:00:22.714Z,0.97
2019-03-05T18:03:49.447Z,1.33
2019-03-05T18:08:58.007Z,1.50
2019-03-05T18:21:39.508Z,2.30
2019-03-05T18:24:13.986Z,2.23
2019-03-05T18:34:02.025Z,3.90
2019-03-05T18:43:11.495Z,2.27
2019-03-05T18:45:58.281Z,2.47
2019-03-05T18:57:34.836Z,1.97
2019-03-05T19:07:19.145Z,2.10
2019-03-05T19:13:06.057Z,2.20
2019-03-05T19:18:57.529Z,2.50
2019-03-05T19:21:41.668Z,3.00
2019-03-05T19:24:46.861Z,3.20
2019-03-05T19:31:14.083Z,2.57
2019-03-05T19:37:28.502Z,3.42
2019-03-05T19:53:12.914Z,3.17
2019-03-05T19:55:46.345Z,3.20
2019-03-05T19:58:20.997Z,3.60
2019-03-05T20:01:12.411Z,3.20
2019-03-05T20:03:41.089Z,3.30
2019-03-05T20:06:09.806Z,3.07
2019-03-05T20:08:40.118Z,2.93
2019-03-05T20:11:08.864Z,2.80
2019-03-05T20:13:37.874Z,3.17
2019-03-05T20:16:07.292Z,3.17
2019-03-05T20:18:35.919Z,3.10
2019-03-05T20:21:04.723Z,3.23
2019-03-05T20:23:34.978Z,3.53
2019-03-05T20:26:03.742Z,2.83
2019-03-05T20:28:32.301Z,3.30
2019-03-05T20:31:00.905Z,3.70
2019-03-05T20:33:29.495Z,5.17
2019-03-05T20:35:58.075Z,5.30
2019-03-05T20:38:26.783Z,3.43
2019-03-05T20:40:55.382Z,3.47
2019-03-05T20:43:23.940Z,3.33
2019-03-05T20:45:55.634Z,4.20
2019-03-05T20:48:24.197Z,3.43
2019-03-05T20:50:52.789Z,3.10
2019-03-05T20:53:21.363Z,3.97
2019-03-05T20:55:50.006Z,4.07
2019-03-05T20:58:18.546Z,3.63
2019-03-05T21:00:47.521Z,3.40
2019-03-05T21:03:16.062Z,4.20
2019-03-05T21:05:49.023Z,4.33
2019-03-05T21:08:17.617Z,3.63
2019-03-05T21:10:46.449Z,4.00
2019-03-05T21:13:15.087Z,4.07
2019-03-05T21:15:43.664Z,4.33
2019-03-05T21:18:14.664Z,4.55
2019-03-05T21:20:43.264Z,3.67
2019-03-05T21:23:13.466Z,4.30
2019-03-05T21:25:42.148Z,3.47
2019-03-05T21:28:10.716Z,4.70
2019-03-05T21:30:39.349Z,4.03
2019-03-05T21:33:07.958Z,4.27
2019-03-05T21:35:37.206Z,3.37
2019-03-05T21:38:05.770Z,4.07
2019-03-05T21:40:34.448Z,3.90
2019-03-05T21:43:03.009Z,3.63
2019-03-05T21:45:37.092Z,3.93
2019-03-05T21:48:06.403Z,4.07
2019-03-05T21:50:35.069Z,4.23
2019-03-05T21:53:04.076Z,4.23
2019-03-05T21:55:32.746Z,4.20
2019-03-05T21:58:01.298Z,3.90
2019-03-05T22:00:40.090Z,4.60
2019-03-05T22:03:08.766Z,7.07
2019-03-05T22:05:37.611Z,6.13
2019-03-05T22:08:06.231Z,5.30
2019-03-05T22:10:35.077Z,4.30
2019-03-05T22:13:04.222Z,5.10
2019-03-05T22:15:34.161Z,4.80
2019-03-05T22:18:02.784Z,4.77
2019-03-05T22:20:31.499Z,4.13
2019-03-05T22:23:00.410Z,5.70
2019-03-05T22:25:30.569Z,5.03
2019-03-05T22:27:59.125Z,5.83
2019-03-05T22:30:30.643Z,5.40
2019-03-05T22:32:59.344Z,4.90
2019-03-05T22:35:27.958Z,5.60
2019-03-05T22:37:56.507Z,4.83
2019-03-05T22:40:28.791Z,5.77
2019-03-05T22:42:57.616Z,4.90
2019-03-05T22:45:30.384Z,5.70
2019-03-05T22:47:59.001Z,7.47
2019-03-05T22:50:27.630Z,6.33
2019-03-05T22:52:56.183Z,5.47
2019-03-05T22:55:24.841Z,5.13
2019-03-05T22:57:53.485Z,5.27
2019-03-05T23:00:32.377Z,5.37
2019-03-05T23:03:01.931Z,5.00
2019-03-05T23:05:31.888Z,5.10
2019-03-05T23:08:00.450Z,5.30
2019-03-05T23:10:29.090Z,5.27
2019-03-05T23:12:57.791Z,4.63
2019-03-05T23:15:27.088Z,5.03
2019-03-05T23:17:55.758Z,5.10
2019-03-05T23:20:24.393Z,4.47
2019-03-05T23:23:19.453Z,5.70
2019-03-05T23:25:29.014Z,5.13
2019-03-05T23:30:58.863Z,5.50
2019-03-05T23:33:29.059Z,5.57
2019-03-05T23:35:59.169Z,5.17
2019-03-05T23:38:53.357Z,5.53
2019-03-05T23:41:27.234Z,5.37
2019-03-05T23:43:58.308Z,4.87
2019-03-05T23:47:17.344Z,5.40
2019-03-05T23:52:51.577Z,5.73
2019-03-05T23:55:31.390Z,5.90
2019-03-05T23:58:25.893Z,5.27
